createdAt,value
2022-09-11T00:02:19.898Z,146975.34
2022-09-11T00:04:46.981Z,146971.66
2022-09-11T00:07:13.991Z,146975.34
2022-09-11T00:09:40.975Z,146911.91
2022-09-11T00:12:08.046Z,146941.22
2022-09-11T00:14:35.495Z,146950.97
2022-09-11T00:17:02.598Z,146892.41
2022-09-11T00:19:29.646Z,146943.63
2022-09-11T00:21:57.214Z,146907.03
2022-09-11T00:24:24.574Z,146904.63
2022-09-11T00:26:51.638Z,146810.72
2022-09-11T00:29:19.606Z,146855.84
2022-09-11T00:31:46.955Z,146836.34
2022-09-11T00:34:14.089Z,146846.09
2022-09-11T00:36:44.214Z,146772.94
2022-09-11T00:39:12.803Z,146832.69
2022-09-11T00:41:43.216Z,146786.34
2022-09-11T00:44:17.924Z,146816.84
2022-09-11T00:46:48.620Z,146790.03
2022-09-11T00:49:40.228Z,146824.13
2022-09-11T00:52:19.852Z,146829.00
2022-09-11T00:54:54.186Z,146824.13
2022-09-11T00:57:24.866Z,146838.75
2022-09-11T00:59:55.770Z,146848.56
2022-09-11T01:02:27.314Z,146865.59
2022-09-11T01:04:56.749Z,146868.03
2022-09-11T01:07:26.486Z,146819.25
2022-09-11T01:09:55.750Z,146807.06
2022-09-11T01:12:49.965Z,146857.06
2022-09-11T01:15:20.027Z,146880.22
2022-09-11T01:17:55.153Z,146860.72
2022-09-11T01:20:45.007Z,146858.31
2022-09-11T01:24:02.027Z,146855.84
2022-09-11T01:26:53.439Z,146875.34
2022-09-11T01:29:39.203Z,146833.88
2022-09-11T01:32:19.597Z,146842.44
2022-09-11T01:34:55.903Z,146877.78
2022-09-11T01:37:33.067Z,146848.56
2022-09-11T01:40:05.374Z,146888.75
2022-09-11T01:42:39.502Z,146890.00
2022-09-11T01:45:07.447Z,146890.00
2022-09-11T01:47:37.755Z,146890.00
2022-09-11T01:50:18.077Z,146897.28
2022-09-11T01:52:50.389Z,146902.16
2022-09-11T01:55:24.019Z,146904.63
2022-09-11T01:58:00.344Z,146880.22
2022-09-11T02:00:29.233Z,146843.63
2022-09-11T02:03:03.877Z,146882.66
2022-09-11T02:05:37.037Z,146894.88
2022-09-11T02:08:34.553Z,146924.13
2022-09-11T02:11:07.058Z,146890.00
2022-09-11T02:13:42.422Z,146899.75
2022-09-11T02:16:21.685Z,146885.13
2022-09-11T02:19:03.277Z,146858.31
2022-09-11T02:21:32.263Z,146853.44
2022-09-11T02:24:00.905Z,146854.63
2022-09-11T02:26:31.483Z,146877.78
2022-09-11T02:28:59.763Z,146815.59
2022-09-11T02:31:27.925Z,146802.19
2022-09-11T02:33:55.820Z,146868.03
2022-09-11T02:36:31.547Z,146858.31
2022-09-11T02:39:31.185Z,146872.91
2022-09-11T02:42:31.057Z,146877.78
2022-09-11T02:45:19.657Z,146860.72
2022-09-11T02:48:13.730Z,146880.22
2022-09-11T02:51:10.619Z,146855.84
2022-09-11T02:54:17.978Z,146877.78
2022-09-11T02:56:50.345Z,146902.16
2022-09-11T02:59:24.282Z,146886.34
2022-09-11T03:01:55.081Z,146869.25
2022-09-11T03:04:25.421Z,146885.13
2022-09-11T03:06:54.353Z,146819.25
2022-09-11T03:09:21.501Z,146892.41
2022-09-11T03:11:53.051Z,146860.72
2022-09-11T03:14:20.202Z,146853.44
2022-09-11T03:16:48.289Z,146833.88
2022-09-11T03:19:15.493Z,146814.41
2022-09-11T03:21:42.932Z,146802.19
2022-09-11T03:24:10.279Z,146758.34
2022-09-11T03:26:38.225Z,146749.78
2022-09-11T03:29:05.851Z,146681.50
2022-09-11T03:31:37.312Z,146672.97
2022-09-11T03:34:06.392Z,146710.78
2022-09-11T03:36:34.383Z,146743.72
2022-09-11T03:39:02.189Z,146768.06
2022-09-11T03:41:30.818Z,146772.94
2022-09-11T03:43:58.123Z,146746.13
2022-09-11T03:46:25.528Z,146670.53
2022-09-11T03:48:53.222Z,146768.06
2022-09-11T03:51:21.120Z,146697.31
2022-09-11T03:53:48.196Z,146746.13
2022-09-11T03:56:15.983Z,146774.16
2022-09-11T03:58:48.210Z,146738.84
2022-09-11T04:01:18.988Z,146802.19
2022-09-11T04:03:46.538Z,146821.72
2022-09-11T04:06:22.041Z,146785.16
2022-09-11T04:08:49.652Z,146816.84
2022-09-11T04:11:17.466Z,146804.66
2022-09-11T04:13:45.586Z,146793.69
2022-09-11T04:16:18.387Z,146821.72
2022-09-11T04:18:49.361Z,146824.13
2022-09-11T04:21:18.324Z,146811.97
2022-09-11T04:23:54.278Z,146831.47
2022-09-11T04:26:24.812Z,146833.88
2022-09-11T04:28:57.118Z,146838.75
2022-09-11T04:31:26.210Z,146841.22
2022-09-11T04:33:57.540Z,146853.44
2022-09-11T04:36:27.210Z,146824.13
2022-09-11T04:38:57.666Z,146846.09
2022-09-11T04:41:25.309Z,146838.75
2022-09-11T04:44:02.449Z,146822.94
2022-09-11T04:46:32.252Z,146825.34
2022-09-11T04:49:02.142Z,146826.59
2022-09-11T04:51:34.692Z,146838.75
2022-09-11T04:54:02.762Z,146841.22
2022-09-11T04:56:37.770Z,146819.25
2022-09-11T04:59:15.804Z,146859.50
2022-09-11T05:01:47.100Z,146848.56
2022-09-11T05:04:21.740Z,146863.19
2022-09-11T05:06:50.116Z,146876.59
2022-09-11T05:09:18.315Z,146832.69
2022-09-11T05:11:47.288Z,146841.22
2022-09-11T05:14:15.355Z,146858.31
2022-09-11T05:16:45.424Z,146870.47
2022-09-11T05:19:13.663Z,146775.41
2022-09-11T05:21:41.489Z,146897.28
2022-09-11T05:24:08.486Z,146936.34
2022-09-11T05:26:37.608Z,146937.53
2022-09-11T05:29:15.954Z,146943.63
2022-09-11T05:31:48.160Z,146959.50
2022-09-11T05:34:20.432Z,146987.59
2022-09-11T05:36:48.099Z,146970.47
2022-09-11T05:39:15.120Z,146994.94
2022-09-11T05:41:42.517Z,147005.88
2022-09-11T05:44:09.476Z,146993.69
2022-09-11T05:46:38.016Z,146975.34
2022-09-11T05:49:06.311Z,146994.94
2022-09-11T05:51:35.730Z,146994.94
2022-09-11T05:54:04.294Z,147019.31
2022-09-11T05:56:32.525Z,146960.72
2022-09-11T05:59:03.431Z,147025.41
2022-09-11T06:01:37.686Z,147033.94
2022-09-11T06:04:13.489Z,146987.59
2022-09-11T06:06:43.736Z,146958.28
2022-09-11T06:09:10.803Z,147057.13
2022-09-11T06:11:37.934Z,147083.97
2022-09-11T06:14:05.001Z,147102.25
2022-09-11T06:16:32.629Z,147097.38
2022-09-11T06:19:07.582Z,147068.06
2022-09-11T06:21:35.293Z,147041.28
2022-09-11T06:24:08.650Z,147110.81
2022-09-11T06:26:36.012Z,147143.75
2022-09-11T06:29:03.201Z,147148.63
2022-09-11T06:31:31.253Z,147173.00
2022-09-11T06:33:58.283Z,147163.25
2022-09-11T06:36:27.003Z,147118.09
2022-09-11T06:38:58.162Z,147170.59
2022-09-11T06:41:28.112Z,147190.09
2022-09-11T06:44:03.824Z,147173.00
2022-09-11T06:46:31.469Z,147229.19
2022-09-11T06:49:01.226Z,147151.06
2022-09-11T06:51:29.741Z,147194.97
2022-09-11T06:54:01.930Z,147174.25
2022-09-11T06:56:33.263Z,147109.59
2022-09-11T06:59:01.164Z,147188.91
2022-09-11T07:01:29.870Z,147197.44
2022-09-11T07:04:02.606Z,147234.06
2022-09-11T07:06:31.949Z,147246.28
2022-09-11T07:09:02.440Z,147258.50
2022-09-11T07:11:47.025Z,147209.63
2022-09-11T07:14:14.238Z,147258.50
2022-09-11T07:16:44.067Z,147319.50
2022-09-11T07:19:13.483Z,147284.16
2022-09-11T07:21:41.727Z,147375.72
2022-09-11T07:24:09.261Z,147336.63
2022-09-11T07:26:40.313Z,147417.22
2022-09-11T07:29:29.297Z,147402.56
2022-09-11T07:31:58.563Z,147439.22
2022-09-11T07:34:26.877Z,147447.72
2022-09-11T07:36:55.382Z,147402.56
2022-09-11T07:39:25.281Z,147369.56
2022-09-11T07:42:14.910Z,147439.22
2022-09-11T07:44:42.859Z,147472.16
2022-09-11T07:47:10.434Z,147534.47
2022-09-11T07:49:42.580Z,147571.13
2022-09-11T07:52:12.626Z,147517.41
2022-09-11T07:54:48.408Z,147612.66
2022-09-11T07:57:16.434Z,147741.00
2022-09-11T07:59:46.260Z,147752.03
2022-09-11T08:02:14.067Z,147612.66
2022-09-11T08:04:42.280Z,147644.41
2022-09-11T08:07:10.432Z,147710.44
2022-09-11T08:09:37.426Z,147712.84
2022-09-11T08:12:05.802Z,147661.53
2022-09-11T08:14:36.845Z,147656.66
2022-09-11T08:17:16.326Z,147637.13
2022-09-11T08:19:43.341Z,147649.31
2022-09-11T08:22:11.722Z,147690.84
2022-09-11T08:24:43.283Z,147622.47
2022-09-11T08:27:13.570Z,147707.97
2022-09-11T08:29:42.461Z,147732.47
2022-09-11T08:32:10.224Z,147732.47
2022-09-11T08:34:38.414Z,147664.00
2022-09-11T08:37:05.698Z,147582.16
2022-09-11T08:39:34.947Z,147566.25
2022-09-11T08:42:09.398Z,147583.34
2022-09-11T08:44:39.509Z,147594.31
2022-09-11T08:47:19.074Z,147560.16
2022-09-11T08:50:01.373Z,147598.00
2022-09-11T08:52:29.660Z,147659.13
2022-09-11T08:54:59.243Z,147742.25
2022-09-11T08:57:47.260Z,147815.59
2022-09-11T09:00:20.789Z,147885.25
2022-09-11T09:03:12.441Z,148033.25
2022-09-11T09:05:52.594Z,148016.09
2022-09-11T09:08:39.062Z,148030.81
2022-09-11T09:11:20.413Z,148011.22
2022-09-11T09:14:08.408Z,147906.00
2022-09-11T09:16:35.559Z,147942.75
2022-09-11T09:19:20.139Z,147925.59
2022-09-11T09:21:52.692Z,147921.94
2022-09-11T09:24:20.474Z,147749.56
2022-09-11T09:26:53.329Z,147832.66
2022-09-11T09:29:23.489Z,147778.91
2022-09-11T09:31:57.395Z,147787.47
2022-09-11T09:34:27.779Z,147808.22
2022-09-11T09:37:06.126Z,147798.47
2022-09-11T09:39:36.398Z,147847.38
2022-09-11T09:42:33.520Z,147881.56
2022-09-11T09:45:48.580Z,147937.84
2022-09-11T09:48:16.360Z,147989.25
2022-09-11T09:50:46.453Z,147968.44
2022-09-11T09:53:33.940Z,148016.09
2022-09-11T09:56:04.681Z,148106.63
2022-09-11T09:58:42.066Z,148096.84
2022-09-11T10:01:43.955Z,148047.91
2022-09-11T10:04:26.942Z,148066.25
2022-09-11T10:07:05.432Z,148046.69
2022-09-11T10:09:33.326Z,148025.94
2022-09-11T10:12:04.062Z,148057.69
2022-09-11T10:14:50.911Z,148017.38
2022-09-11T10:17:30.203Z,147930.50
2022-09-11T10:20:26.613Z,147879.16
2022-09-11T10:22:55.158Z,147918.25
2022-09-11T10:25:26.647Z,147941.53
2022-09-11T10:28:11.409Z,148080.97
2022-09-11T10:30:40.215Z,148121.31
2022-09-11T10:33:26.652Z,148110.31
2022-09-11T10:35:56.024Z,148062.63
2022-09-11T10:38:41.522Z,148248.59
2022-09-11T10:41:14.922Z,148260.84
2022-09-11T10:43:45.408Z,148289.00
2022-09-11T10:46:18.157Z,148322.03
2022-09-11T10:48:58.771Z,148273.06
2022-09-11T10:51:29.682Z,148263.28
2022-09-11T10:54:14.295Z,148226.56
2022-09-11T10:57:00.284Z,148241.22
2022-09-11T10:59:40.743Z,148184.97
2022-09-11T11:02:19.533Z,148011.22
2022-09-11T11:04:47.843Z,148095.63
2022-09-11T11:07:51.295Z,148140.91
2022-09-11T11:10:56.161Z,148126.19
2022-09-11T11:13:49.263Z,148214.34
2022-09-11T11:16:16.191Z,148269.41
2022-09-11T11:18:57.095Z,148287.78
2022-09-11T11:21:48.363Z,148251.06
2022-09-11T11:24:39.812Z,148136.00
2022-09-11T11:27:44.835Z,148147.06
2022-09-11T11:30:17.176Z,148101.75
2022-09-11T11:33:32.212Z,148045.50
2022-09-11T11:36:07.613Z,147994.13
2022-09-11T11:38:43.544Z,147991.66
2022-09-11T11:41:28.024Z,147964.75
2022-09-11T11:43:57.613Z,147967.22
2022-09-11T11:46:33.127Z,147974.53
2022-09-11T11:49:04.482Z,147959.88
2022-09-11T11:51:44.664Z,147999.03
2022-09-11T11:54:20.271Z,148012.47
2022-09-11T11:56:51.773Z,148014.91
2022-09-11T11:59:31.955Z,148050.38
2022-09-11T12:02:04.232Z,148061.38
2022-09-11T12:04:46.185Z,148013.69
2022-09-11T12:07:15.271Z,148030.81
2022-09-11T12:09:50.480Z,148149.47
2022-09-11T12:12:19.454Z,148165.41
2022-09-11T12:14:51.955Z,148143.31
2022-09-11T12:17:25.553Z,148153.16
2022-09-11T12:20:10.879Z,148186.19
2022-09-11T12:22:42.847Z,148162.94
2022-09-11T12:25:18.570Z,148094.38
2022-09-11T12:27:52.147Z,148106.63
2022-09-11T12:30:20.308Z,148096.84
2022-09-11T12:32:47.634Z,148084.59
2022-09-11T12:35:24.724Z,148077.28
2022-09-11T12:38:35.396Z,148078.50
2022-09-11T12:41:12.983Z,148131.06
2022-09-11T12:43:41.241Z,148118.88
2022-09-11T12:46:13.292Z,148085.84
2022-09-11T12:48:44.040Z,148143.31
2022-09-11T12:51:22.588Z,148101.75
2022-09-11T12:53:53.004Z,148192.31
2022-09-11T12:56:23.962Z,148209.47
2022-09-11T12:59:10.896Z,148270.63
2022-09-11T13:01:44.047Z,148260.84
2022-09-11T13:04:12.147Z,148405.28
2022-09-11T13:07:07.108Z,148468.97
2022-09-11T13:09:45.787Z,148498.31
2022-09-11T13:12:18.969Z,148508.16
2022-09-11T13:14:51.682Z,148547.38
2022-09-11T13:17:30.128Z,148546.16
2022-09-11T13:20:21.743Z,148661.28
2022-09-11T13:22:54.841Z,148639.22
2022-09-11T13:25:28.510Z,148626.94
2022-09-11T13:28:01.105Z,148557.16
2022-09-11T13:30:28.136Z,148586.56
2022-09-11T13:33:11.739Z,148535.06
2022-09-11T13:35:45.016Z,148402.88
2022-09-11T13:38:48.347Z,148384.50
2022-09-11T13:41:19.892Z,148280.41
2022-09-11T13:43:59.236Z,148285.31
2022-09-11T13:46:34.724Z,148341.59
2022-09-11T13:49:10.923Z,148351.41
2022-09-11T13:51:43.763Z,148307.34
2022-09-11T13:54:30.797Z,148337.91
2022-09-11T13:56:57.741Z,148353.91
2022-09-11T13:59:49.272Z,148304.88
2022-09-11T14:02:34.761Z,148322.03
2022-09-11T14:05:25.053Z,148257.16
2022-09-11T14:08:07.484Z,148347.78
2022-09-11T14:10:43.573Z,148358.78
2022-09-11T14:13:19.877Z,148361.25
2022-09-11T14:15:55.251Z,148307.34
2022-09-11T14:18:34.177Z,148352.69
2022-09-11T14:21:05.414Z,148358.78
2022-09-11T14:23:41.434Z,148339.16
2022-09-11T14:26:15.943Z,148287.78
2022-09-11T14:29:06.921Z,148282.84
2022-09-11T14:31:38.401Z,148273.06
2022-09-11T14:34:17.763Z,148276.72
2022-09-11T14:36:47.078Z,148169.09
2022-09-11T14:39:22.400Z,148171.50
2022-09-11T14:41:49.371Z,148165.41
2022-09-11T14:44:17.649Z,148142.13
2022-09-11T14:46:44.706Z,148124.97
2022-09-11T14:49:12.614Z,148111.53
2022-09-11T14:51:40.893Z,148127.44
2022-09-11T14:54:15.124Z,148124.97
2022-09-11T14:56:42.684Z,148118.88
2022-09-11T14:59:10.102Z,147961.09
2022-09-11T15:01:37.096Z,148173.97
2022-09-11T15:04:04.251Z,148209.47
2022-09-11T15:06:31.396Z,148226.56
2022-09-11T15:09:01.404Z,148265.75
2022-09-11T15:11:28.502Z,148175.19
2022-09-11T15:14:13.820Z,148227.81
2022-09-11T15:16:43.413Z,148210.69
2022-09-11T15:19:10.546Z,148219.25
2022-09-11T15:21:38.088Z,148202.09
2022-09-11T15:24:05.801Z,148238.81
2022-09-11T15:26:34.161Z,148260.84
2022-09-11T15:29:01.129Z,148248.59
2022-09-11T15:31:28.780Z,148270.63
2022-09-11T15:33:57.056Z,148309.78
2022-09-11T15:36:26.044Z,148290.19
2022-09-11T15:38:54.244Z,148275.53
2022-09-11T15:41:22.050Z,148437.13
2022-09-11T15:43:50.524Z,148422.44
2022-09-11T15:46:19.070Z,148464.06
2022-09-11T15:48:48.211Z,148702.91
2022-09-11T15:51:20.633Z,148787.47
2022-09-11T15:53:48.538Z,148660.06
2022-09-11T15:56:22.715Z,148537.53
2022-09-11T15:58:52.856Z,148597.56
2022-09-11T16:01:22.632Z,148595.09
2022-09-11T16:03:54.560Z,148461.59
2022-09-11T16:06:23.374Z,148366.16
2022-09-11T16:08:51.995Z,148491.00
2022-09-11T16:11:19.432Z,148551.03
2022-09-11T16:13:49.903Z,148483.63
2022-09-11T16:16:17.196Z,148417.53
2022-09-11T16:18:44.894Z,148268.16
2022-09-11T16:21:16.234Z,148269.41
2022-09-11T16:23:44.269Z,148429.75
2022-09-11T16:26:20.584Z,148711.50
2022-09-11T16:28:48.192Z,148770.38
2022-09-11T16:31:15.507Z,148983.63
2022-09-11T16:33:44.310Z,148957.88
2022-09-11T16:36:19.714Z,149095.22
2022-09-11T16:38:48.295Z,149063.28
2022-09-11T16:41:18.795Z,149084.19
2022-09-11T16:43:47.636Z,149069.44
2022-09-11T16:46:18.237Z,149155.31
2022-09-11T16:48:46.393Z,149042.47
2022-09-11T16:51:16.475Z,148987.31
2022-09-11T16:53:43.641Z,148802.22
2022-09-11T16:56:13.228Z,148748.28
2022-09-11T16:58:42.074Z,148685.75
2022-09-11T17:01:14.596Z,148655.16
2022-09-11T17:03:43.065Z,148472.66
2022-09-11T17:06:11.131Z,148312.22
2022-09-11T17:08:39.165Z,148241.22
2022-09-11T17:11:09.597Z,148175.19
2022-09-11T17:13:36.969Z,148124.97
2022-09-11T17:16:06.472Z,148095.63
2022-09-11T17:18:33.520Z,148065.03
2022-09-11T17:21:06.049Z,148047.91
2022-09-11T17:23:33.935Z,148025.94
2022-09-11T17:26:15.103Z,147936.63
2022-09-11T17:28:43.743Z,147881.56
2022-09-11T17:31:14.361Z,147886.47
2022-09-11T17:33:42.234Z,147857.16
2022-09-11T17:36:11.432Z,147866.91
2022-09-11T17:38:39.514Z,147764.22
2022-09-11T17:41:08.138Z,147808.22
2022-09-11T17:43:36.558Z,147732.47
2022-09-11T17:46:15.504Z,147753.22
2022-09-11T17:48:43.350Z,147738.56
2022-09-11T17:51:12.990Z,147709.19
2022-09-11T17:53:42.727Z,147640.78
2022-09-11T17:56:14.016Z,147617.53
2022-09-11T17:58:42.664Z,147544.25
2022-09-11T18:01:13.620Z,147543.03
2022-09-11T18:03:43.255Z,147506.38
2022-09-11T18:06:37.497Z,147484.34
2022-09-11T18:09:15.087Z,147461.16
2022-09-11T18:11:45.105Z,147422.09
2022-09-11T18:14:13.760Z,147368.34
2022-09-11T18:16:44.123Z,147356.13
2022-09-11T18:19:12.107Z,147343.97
2022-09-11T18:21:39.461Z,147290.22
2022-09-11T18:24:09.807Z,147304.88
2022-09-11T18:26:40.081Z,147234.06
2022-09-11T18:29:10.648Z,147260.97
2022-09-11T18:31:43.719Z,147257.28
2022-09-11T18:34:12.983Z,147227.91
2022-09-11T18:36:40.019Z,147212.06
2022-09-11T18:39:07.079Z,147236.47
2022-09-11T18:41:37.154Z,147206.00
2022-09-11T18:44:08.609Z,147199.84
2022-09-11T18:46:37.292Z,147187.69
2022-09-11T18:49:04.858Z,147163.25
2022-09-11T18:51:32.396Z,147168.13
2022-09-11T18:54:00.245Z,147163.25
2022-09-11T18:56:28.477Z,147103.47
2022-09-11T18:58:55.970Z,147112.00
2022-09-11T19:01:25.642Z,147104.66
2022-09-11T19:03:53.485Z,146999.81
2022-09-11T19:06:25.003Z,147063.19
2022-09-11T19:08:53.345Z,147002.22
2022-09-11T19:11:23.816Z,147051.03
2022-09-11T19:13:52.695Z,147074.22
2022-09-11T19:16:21.774Z,147011.97
2022-09-11T19:18:49.337Z,147032.72
2022-09-11T19:21:22.191Z,147032.72
2022-09-11T19:23:53.484Z,147041.28
2022-09-11T19:26:24.192Z,147036.41
2022-09-11T19:28:52.097Z,147020.50
2022-09-11T19:31:21.335Z,147003.44
2022-09-11T19:33:48.503Z,146941.22
2022-09-11T19:36:17.720Z,146983.88
2022-09-11T19:38:46.509Z,146953.38
2022-09-11T19:41:17.710Z,146970.47
2022-09-11T19:43:45.481Z,146955.84
2022-09-11T19:46:21.267Z,146913.16
2022-09-11T19:48:48.722Z,146925.34
2022-09-11T19:51:21.193Z,146892.41
2022-09-11T19:53:49.356Z,146898.50
2022-09-11T19:56:17.218Z,146890.00
2022-09-11T19:58:45.118Z,146864.38
2022-09-11T20:01:24.034Z,146865.59
2022-09-11T20:03:53.106Z,146855.84
2022-09-11T20:06:23.597Z,146846.09
2022-09-11T20:08:59.186Z,146816.84
2022-09-11T20:11:38.999Z,146836.34
2022-09-11T20:14:06.294Z,146782.69
2022-09-11T20:16:33.598Z,146760.75
2022-09-11T20:19:09.242Z,146743.72
2022-09-11T20:21:36.328Z,146747.34
2022-09-11T20:24:06.104Z,146764.41
2022-09-11T20:26:33.598Z,146640.06
2022-09-11T20:29:08.994Z,146703.44
2022-09-11T20:31:47.439Z,146743.72
2022-09-11T20:34:18.677Z,146741.25
2022-09-11T20:36:45.732Z,146703.44
2022-09-11T20:39:13.928Z,146724.19
2022-09-11T20:41:41.192Z,146724.19
2022-09-11T20:44:08.662Z,146702.22
2022-09-11T20:46:35.817Z,146677.81
2022-09-11T20:49:04.208Z,146699.78
2022-09-11T20:51:32.495Z,146692.44
2022-09-11T20:54:00.513Z,146687.56
2022-09-11T20:56:28.383Z,146626.66
2022-09-11T20:58:56.417Z,146640.06
2022-09-11T21:01:25.780Z,146660.75
2022-09-11T21:03:55.275Z,146616.91
2022-09-11T21:06:26.179Z,146648.59
2022-09-11T21:08:55.533Z,146614.47
2022-09-11T21:11:24.372Z,146635.19
2022-09-11T21:13:51.784Z,146614.47
2022-09-11T21:16:19.874Z,146601.06
2022-09-11T21:18:55.857Z,146581.56
2022-09-11T21:21:24.758Z,146573.03
2022-09-11T21:23:56.689Z,146569.38
2022-09-11T21:26:26.075Z,146547.47
2022-09-11T21:28:53.112Z,146531.63
2022-09-11T21:31:20.117Z,146504.81
2022-09-11T21:33:47.294Z,146530.41
2022-09-11T21:36:14.723Z,146536.50
2022-09-11T21:38:41.783Z,146514.56
2022-09-11T21:41:10.804Z,146499.94
2022-09-11T21:43:38.536Z,146517.00
2022-09-11T21:46:07.768Z,146512.16
2022-09-11T21:48:36.365Z,146465.88
2022-09-11T21:51:09.625Z,146490.22
2022-09-11T21:53:40.894Z,146480.47
2022-09-11T21:56:19.879Z,146499.94
2022-09-11T21:58:48.616Z,146521.88
2022-09-11T22:01:15.768Z,146426.88
2022-09-11T22:03:43.285Z,146447.59
2022-09-11T22:06:11.633Z,146470.75
2022-09-11T22:08:41.056Z,146452.47
2022-09-11T22:11:09.418Z,146412.28
2022-09-11T22:13:36.894Z,146409.88
2022-09-11T22:16:07.797Z,146409.88
2022-09-11T22:18:37.253Z,146390.31
2022-09-11T22:21:04.978Z,146409.88
2022-09-11T22:23:32.634Z,146407.34
2022-09-11T22:26:02.661Z,146400.03
2022-09-11T22:28:29.871Z,146404.91
2022-09-11T22:30:56.888Z,146381.78
2022-09-11T22:33:24.385Z,146373.28
2022-09-11T22:35:51.394Z,146302.66
2022-09-11T22:38:18.552Z,146385.44
2022-09-11T22:40:51.775Z,146317.25
2022-09-11T22:43:19.049Z,146317.25
2022-09-11T22:45:51.182Z,146294.13
2022-09-11T22:48:18.458Z,146329.44
2022-09-11T22:50:45.484Z,146324.56
2022-09-11T22:53:12.498Z,146312.38
2022-09-11T22:55:46.638Z,146314.84
2022-09-11T22:58:13.841Z,146300.25
2022-09-11T23:00:42.104Z,146289.25
2022-09-11T23:03:09.413Z,146279.53
2022-09-11T23:06:14.841Z,146238.16
2022-09-11T23:08:42.389Z,146264.91
2022-09-11T23:11:11.125Z,146279.53
2022-09-11T23:13:38.201Z,146263.72
2022-09-11T23:16:13.837Z,146255.19
2022-09-11T23:18:41.744Z,146245.47
2022-09-11T23:21:09.838Z,146258.81
2022-09-11T23:23:40.943Z,146236.94
2022-09-11T23:26:10.546Z,146185.78
2022-09-11T23:28:37.991Z,146217.44
2022-09-11T23:31:24.739Z,146219.88
2022-09-11T23:33:54.134Z,146222.28
2022-09-11T23:36:21.724Z,146223.53
2022-09-11T23:38:50.286Z,146205.28
2022-09-11T23:41:18.051Z,146208.94
2022-09-11T23:43:45.735Z,146183.38
2022-09-11T23:46:13.061Z,146190.69
2022-09-11T23:48:40.920Z,146197.97
2022-09-11T23:51:08.521Z,146122.56
2022-09-11T23:53:36.825Z,146178.50
2022-09-11T23:56:04.375Z,146146.88
2022-09-11T23:58:31.388Z,146149.28
